sensor_id;sensor_type;location;lat;lon;timestamp;temperature;humidity
1351;DHT22;669;50.206;9.998;2023-02-10T00:01:27;-4.20;66.10
1351;DHT22;669;50.206;9.998;2023-02-10T00:03:55;-4.20;66.60
1351;DHT22;669;50.206;9.998;2023-02-10T00:06:26;-4.20;67.50
1351;DHT22;669;50.206;9.998;2023-02-10T00:08:57;-4.30;67.70
1351;DHT22;669;50.206;9.998;2023-02-10T00:11:25;-4.20;66.70
1351;DHT22;669;50.206;9.998;2023-02-10T00:14:08;-4.20;66.90
1351;DHT22;669;50.206;9.998;2023-02-10T00:16:36;-4.40;66.40
1351;DHT22;669;50.206;9.998;2023-02-10T00:19:04;-4.40;67.50
1351;DHT22;669;50.206;9.998;2023-02-10T00:21:34;-4.40;67.50
1351;DHT22;669;50.206;9.998;2023-02-10T00:24:02;-4.40;66.70
1351;DHT22;669;50.206;9.998;2023-02-10T00:26:30;-4.50;66.70
1351;DHT22;669;50.206;9.998;2023-02-10T00:28:58;-4.50;66.60
1351;DHT22;669;50.206;9.998;2023-02-10T00:31:26;-4.50;66.40
1351;DHT22;669;50.206;9.998;2023-02-10T00:33:54;-4.50;66.20
1351;DHT22;669;50.206;9.998;2023-02-10T00:36:22;-4.50;66.10
1351;DHT22;669;50.206;9.998;2023-02-10T00:38:52;-4.60;66.60
1351;DHT22;669;50.206;9.998;2023-02-10T00:41:22;-4.60;67.30
1351;DHT22;669;50.206;9.998;2023-02-10T00:43:51;-4.60;68.20
1351;DHT22;669;50.206;9.998;2023-02-10T00:46:20;-4.60;68.40
1351;DHT22;669;50.206;9.998;2023-02-10T00:48:49;-4.50;68.30
1351;DHT22;669;50.206;9.998;2023-02-10T00:51:17;-4.50;69.10
1351;DHT22;669;50.206;9.998;2023-02-10T00:53:45;-4.40;69.30
1351;DHT22;669;50.206;9.998;2023-02-10T00:56:16;-4.40;69.30
1351;DHT22;669;50.206;9.998;2023-02-10T00:58:45;-4.40;69.60
1351;DHT22;669;50.206;9.998;2023-02-10T01:01:13;-4.30;69.70
1351;DHT22;669;50.206;9.998;2023-02-10T01:03:41;-4.30;69.30
1351;DHT22;669;50.206;9.998;2023-02-10T01:06:09;-4.40;66.40
1351;DHT22;669;50.206;9.998;2023-02-10T01:08:40;-4.40;67.00
1351;DHT22;669;50.206;9.998;2023-02-10T01:11:10;-4.50;64.70
1351;DHT22;669;50.206;9.998;2023-02-10T01:13:40;-4.50;65.20
1351;DHT22;669;50.206;9.998;2023-02-10T01:16:10;-4.50;64.30
1351;DHT22;669;50.206;9.998;2023-02-10T01:18:41;-4.50;65.80
1351;DHT22;669;50.206;9.998;2023-02-10T01:21:10;-4.60;65.40
1351;DHT22;669;50.206;9.998;2023-02-10T01:23:38;-4.60;65.10
1351;DHT22;669;50.206;9.998;2023-02-10T01:26:07;-4.60;65.10
1351;DHT22;669;50.206;9.998;2023-02-10T01:28:35;-4.60;64.50
1351;DHT22;669;50.206;9.998;2023-02-10T01:31:09;-4.60;65.20
1351;DHT22;669;50.206;9.998;2023-02-10T01:33:38;-4.50;65.60
1351;DHT22;669;50.206;9.998;2023-02-10T01:36:07;-4.70;65.80
1351;DHT22;669;50.206;9.998;2023-02-10T01:38:35;-4.70;65.40
1351;DHT22;669;50.206;9.998;2023-02-10T01:41:04;-4.70;64.20
1351;DHT22;669;50.206;9.998;2023-02-10T01:43:33;-4.80;63.60
1351;DHT22;669;50.206;9.998;2023-02-10T01:46:22;-4.70;65.30
1351;DHT22;669;50.206;9.998;2023-02-10T01:48:50;-4.80;66.00
1351;DHT22;669;50.206;9.998;2023-02-10T01:51:19;-4.80;65.80
1351;DHT22;669;50.206;9.998;2023-02-10T01:53:49;-4.80;66.30
1351;DHT22;669;50.206;9.998;2023-02-10T01:56:18;-4.70;66.10
1351;DHT22;669;50.206;9.998;2023-02-10T01:58:46;-4.80;66.30
1351;DHT22;669;50.206;9.998;2023-02-10T02:01:13;-4.80;66.00
1351;DHT22;669;50.206;9.998;2023-02-10T02:03:43;-4.80;65.90
1351;DHT22;669;50.206;9.998;2023-02-10T02:06:11;-4.90;66.30
1351;DHT22;669;50.206;9.998;2023-02-10T02:08:39;-4.90;67.00
1351;DHT22;669;50.206;9.998;2023-02-10T02:11:16;-4.90;67.70
1351;DHT22;669;50.206;9.998;2023-02-10T02:14:22;-4.80;67.00
1351;DHT22;669;50.206;9.998;2023-02-10T02:16:59;-4.90;63.50
1351;DHT22;669;50.206;9.998;2023-02-10T02:22:59;-5.00;64.40
1351;DHT22;669;50.206;9.998;2023-02-10T02:25:41;-5.00;66.10
1351;DHT22;669;50.206;9.998;2023-02-10T02:28:24;-5.00;66.80
1351;DHT22;669;50.206;9.998;2023-02-10T02:31:39;-5.00;67.10
1351;DHT22;669;50.206;9.998;2023-02-10T02:34:14;-5.00;66.50
1351;DHT22;669;50.206;9.998;2023-02-10T02:36:48;-5.00;67.20
1351;DHT22;669;50.206;9.998;2023-02-10T02:39:17;-5.00;65.90
1351;DHT22;669;50.206;9.998;2023-02-10T02:41:45;-5.00;66.80
1351;DHT22;669;50.206;9.998;2023-02-10T02:44:13;-5.00;67.30
1351;DHT22;669;50.206;9.998;2023-02-10T02:46:49;-5.00;68.40
1351;DHT22;669;50.206;9.998;2023-02-10T02:49:28;-4.90;68.40
1351;DHT22;669;50.206;9.998;2023-02-10T02:52:02;-4.90;68.90
1351;DHT22;669;50.206;9.998;2023-02-10T02:54:37;-5.00;69.00
1351;DHT22;669;50.206;9.998;2023-02-10T02:57:11;-5.00;67.40
1351;DHT22;669;50.206;9.998;2023-02-10T02:59:47;-4.90;68.40
1351;DHT22;669;50.206;9.998;2023-02-10T03:02:18;-5.00;69.10
1351;DHT22;669;50.206;9.998;2023-02-10T03:04:47;-4.90;68.20
1351;DHT22;669;50.206;9.998;2023-02-10T03:07:15;-4.90;67.80
1351;DHT22;669;50.206;9.998;2023-02-10T03:09:43;-5.00;68.10
1351;DHT22;669;50.206;9.998;2023-02-10T03:12:11;-5.00;68.20
1351;DHT22;669;50.206;9.998;2023-02-10T03:14:39;-5.00;68.90
1351;DHT22;669;50.206;9.998;2023-02-10T03:17:07;-5.00;69.60
1351;DHT22;669;50.206;9.998;2023-02-10T03:19:37;-5.00;69.30
1351;DHT22;669;50.206;9.998;2023-02-10T03:22:05;-5.00;68.40
1351;DHT22;669;50.206;9.998;2023-02-10T03:24:33;-4.90;68.90
1351;DHT22;669;50.206;9.998;2023-02-10T03:27:00;-4.90;69.80
1351;DHT22;669;50.206;9.998;2023-02-10T03:29:31;-4.90;69.80
1351;DHT22;669;50.206;9.998;2023-02-10T03:31:59;-4.90;70.30
1351;DHT22;669;50.206;9.998;2023-02-10T03:34:28;-4.90;69.60
1351;DHT22;669;50.206;9.998;2023-02-10T03:36:57;-4.80;69.20
1351;DHT22;669;50.206;9.998;2023-02-10T03:39:25;-4.90;69.80
1351;DHT22;669;50.206;9.998;2023-02-10T03:41:53;-4.90;68.80
1351;DHT22;669;50.206;9.998;2023-02-10T03:44:21;-4.90;68.70
1351;DHT22;669;50.206;9.998;2023-02-10T03:46:49;-4.90;69.20
1351;DHT22;669;50.206;9.998;2023-02-10T03:49:17;-4.90;69.20
1351;DHT22;669;50.206;9.998;2023-02-10T03:51:44;-4.90;68.60
1351;DHT22;669;50.206;9.998;2023-02-10T03:54:14;-4.90;68.50
1351;DHT22;669;50.206;9.998;2023-02-10T03:56:42;-4.90;68.60
1351;DHT22;669;50.206;9.998;2023-02-10T03:59:09;-4.90;68.30
1351;DHT22;669;50.206;9.998;2023-02-10T04:01:37;-5.00;68.60
1351;DHT22;669;50.206;9.998;2023-02-10T04:04:05;-5.00;69.50
1351;DHT22;669;50.206;9.998;2023-02-10T04:06:33;-5.00;69.20
1351;DHT22;669;50.206;9.998;2023-02-10T04:09:01;-5.00;67.80
1351;DHT22;669;50.206;9.998;2023-02-10T04:11:30;-5.10;68.50
1351;DHT22;669;50.206;9.998;2023-02-10T04:13:58;-5.00;69.10
1351;DHT22;669;50.206;9.998;2023-02-10T04:16:26;-5.00;69.80
1351;DHT22;669;50.206;9.998;2023-02-10T04:18:54;-4.90;71.00
1351;DHT22;669;50.206;9.998;2023-02-10T04:21:22;-4.90;69.80
1351;DHT22;669;50.206;9.998;2023-02-10T04:23:51;-4.70;68.50
1351;DHT22;669;50.206;9.998;2023-02-10T04:26:19;-4.90;70.20
1351;DHT22;669;50.206;9.998;2023-02-10T04:28:49;-4.70;71.10
1351;DHT22;669;50.206;9.998;2023-02-10T04:31:17;-4.80;72.00
1351;DHT22;669;50.206;9.998;2023-02-10T04:33:45;-4.70;72.30
1351;DHT22;669;50.206;9.998;2023-02-10T04:36:12;-4.60;72.10
1351;DHT22;669;50.206;9.998;2023-02-10T04:38:40;-4.50;73.40
1351;DHT22;669;50.206;9.998;2023-02-10T04:41:08;-4.50;72.80
1351;DHT22;669;50.206;9.998;2023-02-10T04:43:36;-4.40;73.20
1351;DHT22;669;50.206;9.998;2023-02-10T04:46:05;-4.30;72.80
1351;DHT22;669;50.206;9.998;2023-02-10T04:48:34;-4.20;73.10
1351;DHT22;669;50.206;9.998;2023-02-10T04:51:06;-4.20;72.80
1351;DHT22;669;50.206;9.998;2023-02-10T04:53:34;-4.10;73.40
1351;DHT22;669;50.206;9.998;2023-02-10T04:56:02;-4.10;73.30
1351;DHT22;669;50.206;9.998;2023-02-10T04:58:30;-4.10;73.50
1351;DHT22;669;50.206;9.998;2023-02-10T05:00:59;-4.00;72.70
1351;DHT22;669;50.206;9.998;2023-02-10T05:03:28;-4.00;73.20
1351;DHT22;669;50.206;9.998;2023-02-10T05:05:56;-3.90;72.90
1351;DHT22;669;50.206;9.998;2023-02-10T05:08:24;-3.90;73.10
1351;DHT22;669;50.206;9.998;2023-02-10T05:10:53;-3.80;73.00
1351;DHT22;669;50.206;9.998;2023-02-10T05:13:20;-3.80;72.70
1351;DHT22;669;50.206;9.998;2023-02-10T05:15:48;-3.70;72.60
1351;DHT22;669;50.206;9.998;2023-02-10T05:18:16;-3.70;73.20
1351;DHT22;669;50.206;9.998;2023-02-10T05:20:45;-3.70;74.40
1351;DHT22;669;50.206;9.998;2023-02-10T05:23:13;-3.60;74.20
1351;DHT22;669;50.206;9.998;2023-02-10T05:25:41;-3.40;74.70
1351;DHT22;669;50.206;9.998;2023-02-10T05:28:09;-3.50;75.00
1351;DHT22;669;50.206;9.998;2023-02-10T05:30:37;-3.30;75.10
1351;DHT22;669;50.206;9.998;2023-02-10T05:33:05;-3.30;74.90
1351;DHT22;669;50.206;9.998;2023-02-10T05:35:33;-3.20;75.00
1351;DHT22;669;50.206;9.998;2023-02-10T05:38:02;-3.30;74.40
1351;DHT22;669;50.206;9.998;2023-02-10T05:40:30;-3.30;74.30
1351;DHT22;669;50.206;9.998;2023-02-10T05:42:58;-3.30;74.00
1351;DHT22;669;50.206;9.998;2023-02-10T05:45:26;-3.10;74.30
1351;DHT22;669;50.206;9.998;2023-02-10T05:47:54;-3.20;74.70
1351;DHT22;669;50.206;9.998;2023-02-10T05:50:22;-3.20;74.70
1351;DHT22;669;50.206;9.998;2023-02-10T05:52:50;-3.10;74.30
1351;DHT22;669;50.206;9.998;2023-02-10T05:55:19;-3.10;73.80
1351;DHT22;669;50.206;9.998;2023-02-10T05:57:47;-3.10;73.30
1351;DHT22;669;50.206;9.998;2023-02-10T06:00:17;-3.10;73.50
1351;DHT22;669;50.206;9.998;2023-02-10T06:02:45;-3.00;74.80
1351;DHT22;669;50.206;9.998;2023-02-10T06:05:13;-3.00;74.40
1351;DHT22;669;50.206;9.998;2023-02-10T06:07:41;-2.90;74.40
1351;DHT22;669;50.206;9.998;2023-02-10T06:10:09;-2.90;74.40
1351;DHT22;669;50.206;9.998;2023-02-10T06:12:38;-2.90;74.30
1351;DHT22;669;50.206;9.998;2023-02-10T06:15:07;-2.80;74.10
1351;DHT22;669;50.206;9.998;2023-02-10T06:17:35;-2.80;74.80
1351;DHT22;669;50.206;9.998;2023-02-10T06:20:03;-2.60;74.90
1351;DHT22;669;50.206;9.998;2023-02-10T06:22:32;-2.80;73.60
1351;DHT22;669;50.206;9.998;2023-02-10T06:25:00;-2.70;74.90
1351;DHT22;669;50.206;9.998;2023-02-10T06:27:28;-2.70;75.00
1351;DHT22;669;50.206;9.998;2023-02-10T06:29:57;-2.70;74.20
1351;DHT22;669;50.206;9.998;2023-02-10T06:32:25;-2.70;75.00
1351;DHT22;669;50.206;9.998;2023-02-10T06:34:52;-2.60;75.10
1351;DHT22;669;50.206;9.998;2023-02-10T06:37:20;-2.60;75.10
1351;DHT22;669;50.206;9.998;2023-02-10T06:39:48;-2.60;74.80
1351;DHT22;669;50.206;9.998;2023-02-10T06:42:16;-2.60;74.50
1351;DHT22;669;50.206;9.998;2023-02-10T06:44:44;-2.60;74.50
1351;DHT22;669;50.206;9.998;2023-02-10T06:47:13;-2.60;74.50
1351;DHT22;669;50.206;9.998;2023-02-10T06:49:41;-2.60;74.70
1351;DHT22;669;50.206;9.998;2023-02-10T06:52:09;-2.50;74.00
1351;DHT22;669;50.206;9.998;2023-02-10T06:54:42;-2.50;74.50
1351;DHT22;669;50.206;9.998;2023-02-10T06:57:11;-2.50;75.10
1351;DHT22;669;50.206;9.998;2023-02-10T06:59:38;-2.50;75.00
1351;DHT22;669;50.206;9.998;2023-02-10T07:02:08;-2.50;75.10
1351;DHT22;669;50.206;9.998;2023-02-10T07:04:38;-2.40;75.40
1351;DHT22;669;50.206;9.998;2023-02-10T07:07:06;-2.40;75.00
1351;DHT22;669;50.206;9.998;2023-02-10T07:09:34;-2.40;75.10
1351;DHT22;669;50.206;9.998;2023-02-10T07:12:01;-2.30;75.20
1351;DHT22;669;50.206;9.998;2023-02-10T07:14:29;-2.30;75.40
1351;DHT22;669;50.206;9.998;2023-02-10T07:16:57;-2.30;75.40
1351;DHT22;669;50.206;9.998;2023-02-10T07:19:25;-2.30;75.40
1351;DHT22;669;50.206;9.998;2023-02-10T07:21:55;-2.20;75.20
1351;DHT22;669;50.206;9.998;2023-02-10T07:24:23;-2.20;74.70
1351;DHT22;669;50.206;9.998;2023-02-10T07:26:51;-2.20;74.90
1351;DHT22;669;50.206;9.998;2023-02-10T07:29:19;-2.20;75.30
1351;DHT22;669;50.206;9.998;2023-02-10T07:31:47;-2.10;75.50
1351;DHT22;669;50.206;9.998;2023-02-10T07:34:15;-2.10;75.90
1351;DHT22;669;50.206;9.998;2023-02-10T07:36:44;-2.00;75.70
1351;DHT22;669;50.206;9.998;2023-02-10T07:39:13;-2.00;75.90
1351;DHT22;669;50.206;9.998;2023-02-10T07:41:41;-2.00;75.00
1351;DHT22;669;50.206;9.998;2023-02-10T07:44:09;-2.00;75.30
1351;DHT22;669;50.206;9.998;2023-02-10T07:46:37;-2.00;76.30
1351;DHT22;669;50.206;9.998;2023-02-10T07:49:05;-2.00;74.80
1351;DHT22;669;50.206;9.998;2023-02-10T07:51:33;-1.90;75.10
1351;DHT22;669;50.206;9.998;2023-02-10T07:54:01;-1.90;75.00
1351;DHT22;669;50.206;9.998;2023-02-10T07:56:30;-1.90;75.20
1351;DHT22;669;50.206;9.998;2023-02-10T07:58:58;-1.80;76.60
1351;DHT22;669;50.206;9.998;2023-02-10T08:01:27;-1.80;75.30
1351;DHT22;669;50.206;9.998;2023-02-10T08:03:55;-1.70;75.40
1351;DHT22;669;50.206;9.998;2023-02-10T08:06:25;-1.70;75.00
1351;DHT22;669;50.206;9.998;2023-02-10T08:08:53;-1.60;75.30
1351;DHT22;669;50.206;9.998;2023-02-10T08:11:21;-1.60;74.80
1351;DHT22;669;50.206;9.998;2023-02-10T08:13:50;-1.60;75.30
1351;DHT22;669;50.206;9.998;2023-02-10T08:16:18;-1.50;74.40
1351;DHT22;669;50.206;9.998;2023-02-10T08:18:46;-1.50;75.00
1351;DHT22;669;50.206;9.998;2023-02-10T08:21:14;-1.40;73.90
1351;DHT22;669;50.206;9.998;2023-02-10T08:23:42;-1.40;74.60
1351;DHT22;669;50.206;9.998;2023-02-10T08:26:11;-1.30;76.00
1351;DHT22;669;50.206;9.998;2023-02-10T08:28:40;-1.30;75.40
1351;DHT22;669;50.206;9.998;2023-02-10T08:31:09;-1.20;74.80
1351;DHT22;669;50.206;9.998;2023-02-10T08:33:38;-1.20;74.30
1351;DHT22;669;50.206;9.998;2023-02-10T08:36:13;-1.10;74.70
1351;DHT22;669;50.206;9.998;2023-02-10T08:38:42;-1.10;74.40
1351;DHT22;669;50.206;9.998;2023-02-10T08:41:10;-1.00;74.70
1351;DHT22;669;50.206;9.998;2023-02-10T08:43:38;-1.00;74.50
1351;DHT22;669;50.206;9.998;2023-02-10T08:46:06;-0.90;74.50
1351;DHT22;669;50.206;9.998;2023-02-10T08:48:35;-0.90;74.60
1351;DHT22;669;50.206;9.998;2023-02-10T08:51:06;-0.90;74.60
1351;DHT22;669;50.206;9.998;2023-02-10T08:53:35;-0.90;73.80
1351;DHT22;669;50.206;9.998;2023-02-10T08:56:05;-0.80;74.40
1351;DHT22;669;50.206;9.998;2023-02-10T08:58:33;-0.80;74.00
1351;DHT22;669;50.206;9.998;2023-02-10T09:01:01;-0.70;73.80
1351;DHT22;669;50.206;9.998;2023-02-10T09:03:36;-0.70;74.00
1351;DHT22;669;50.206;9.998;2023-02-10T09:06:04;-0.70;74.20
1351;DHT22;669;50.206;9.998;2023-02-10T09:08:32;-0.70;74.80
1351;DHT22;669;50.206;9.998;2023-02-10T09:11:00;-0.60;74.90
1351;DHT22;669;50.206;9.998;2023-02-10T09:13:28;-0.60;74.70
1351;DHT22;669;50.206;9.998;2023-02-10T09:15:55;-0.50;74.40
1351;DHT22;669;50.206;9.998;2023-02-10T09:18:23;-0.50;73.80
1351;DHT22;669;50.206;9.998;2023-02-10T09:20:53;-0.40;74.50
1351;DHT22;669;50.206;9.998;2023-02-10T09:23:20;-0.30;74.80
1351;DHT22;669;50.206;9.998;2023-02-10T09:25:52;-0.30;73.60
1351;DHT22;669;50.206;9.998;2023-02-10T09:28:20;-0.20;74.60
1351;DHT22;669;50.206;9.998;2023-02-10T09:30:49;-0.10;75.00
1351;DHT22;669;50.206;9.998;2023-02-10T09:33:17;-0.10;73.50
1351;DHT22;669;50.206;9.998;2023-02-10T09:35:45;0.00;73.50
1351;DHT22;669;50.206;9.998;2023-02-10T09:38:15;0.10;74.60
1351;DHT22;669;50.206;9.998;2023-02-10T09:40:50;0.20;72.90
1351;DHT22;669;50.206;9.998;2023-02-10T09:43:43;0.20;72.40
1351;DHT22;669;50.206;9.998;2023-02-10T09:46:16;0.30;71.60
1351;DHT22;669;50.206;9.998;2023-02-10T09:48:58;0.40;71.90
1351;DHT22;669;50.206;9.998;2023-02-10T09:51:37;0.40;72.10
1351;DHT22;669;50.206;9.998;2023-02-10T09:54:09;0.50;71.40
1351;DHT22;669;50.206;9.998;2023-02-10T09:56:38;0.50;71.10
1351;DHT22;669;50.206;9.998;2023-02-10T09:59:12;0.60;70.30
1351;DHT22;669;50.206;9.998;2023-02-10T10:01:44;0.70;70.60
1351;DHT22;669;50.206;9.998;2023-02-10T10:04:15;0.70;70.70
1351;DHT22;669;50.206;9.998;2023-02-10T10:06:45;0.70;71.60
1351;DHT22;669;50.206;9.998;2023-02-10T10:09:27;0.80;70.50
1351;DHT22;669;50.206;9.998;2023-02-10T10:11:58;0.80;71.40
1351;DHT22;669;50.206;9.998;2023-02-10T10:14:28;0.90;71.30
1351;DHT22;669;50.206;9.998;2023-02-10T10:17:09;1.00;70.60
1351;DHT22;669;50.206;9.998;2023-02-10T10:19:48;1.00;71.70
1351;DHT22;669;50.206;9.998;2023-02-10T10:22:27;1.10;70.70
1351;DHT22;669;50.206;9.998;2023-02-10T10:25:13;1.10;70.10
1351;DHT22;669;50.206;9.998;2023-02-10T10:27:53;1.20;69.90
1351;DHT22;669;50.206;9.998;2023-02-10T10:30:29;1.20;69.80
1351;DHT22;669;50.206;9.998;2023-02-10T10:33:02;1.20;70.80
1351;DHT22;669;50.206;9.998;2023-02-10T10:35:37;1.30;71.10
1351;DHT22;669;50.206;9.998;2023-02-10T10:38:11;1.40;71.10
1351;DHT22;669;50.206;9.998;2023-02-10T10:40:43;1.50;69.40
1351;DHT22;669;50.206;9.998;2023-02-10T10:43:17;1.50;68.60
1351;DHT22;669;50.206;9.998;2023-02-10T10:45:49;1.50;67.70
1351;DHT22;669;50.206;9.998;2023-02-10T10:48:22;1.60;70.40
1351;DHT22;669;50.206;9.998;2023-02-10T10:50:55;1.70;69.10
1351;DHT22;669;50.206;9.998;2023-02-10T10:53:35;1.70;68.60
1351;DHT22;669;50.206;9.998;2023-02-10T10:56:08;1.90;70.10
1351;DHT22;669;50.206;9.998;2023-02-10T10:58:41;2.10;69.10
1351;DHT22;669;50.206;9.998;2023-02-10T11:01:12;2.40;68.10
1351;DHT22;669;50.206;9.998;2023-02-10T11:03:40;2.60;68.30
1351;DHT22;669;50.206;9.998;2023-02-10T11:06:09;2.80;67.10
1351;DHT22;669;50.206;9.998;2023-02-10T11:08:42;3.00;66.70
1351;DHT22;669;50.206;9.998;2023-02-10T11:11:14;3.00;64.80
1351;DHT22;669;50.206;9.998;2023-02-10T11:14:09;3.00;65.00
1351;DHT22;669;50.206;9.998;2023-02-10T11:16:41;3.00;65.40
1351;DHT22;669;50.206;9.998;2023-02-10T11:19:18;3.00;67.10
1351;DHT22;669;50.206;9.998;2023-02-10T11:21:46;3.00;66.60
1351;DHT22;669;50.206;9.998;2023-02-10T11:24:21;3.00;66.00
1351;DHT22;669;50.206;9.998;2023-02-10T11:26:59;3.00;65.40
1351;DHT22;669;50.206;9.998;2023-02-10T11:29:31;3.10;65.70
1351;DHT22;669;50.206;9.998;2023-02-10T11:32:00;3.10;65.70
1351;DHT22;669;50.206;9.998;2023-02-10T11:34:29;3.10;65.10
1351;DHT22;669;50.206;9.998;2023-02-10T11:37:08;3.20;66.50
1351;DHT22;669;50.206;9.998;2023-02-10T11:39:38;3.20;65.50
1351;DHT22;669;50.206;9.998;2023-02-10T11:42:15;3.20;65.80
1351;DHT22;669;50.206;9.998;2023-02-10T11:44:52;3.30;65.20
1351;DHT22;669;50.206;9.998;2023-02-10T11:47:20;3.40;65.70
1351;DHT22;669;50.206;9.998;2023-02-10T11:49:49;3.50;65.90
1351;DHT22;669;50.206;9.998;2023-02-10T11:52:18;3.70;65.80
1351;DHT22;669;50.206;9.998;2023-02-10T11:54:49;4.00;62.60
1351;DHT22;669;50.206;9.998;2023-02-10T11:57:34;4.10;57.20
1351;DHT22;669;50.206;9.998;2023-02-10T12:00:28;4.40;58.70
1351;DHT22;669;50.206;9.998;2023-02-10T12:03:26;4.70;55.70
1351;DHT22;669;50.206;9.998;2023-02-10T12:06:03;4.80;56.10
1351;DHT22;669;50.206;9.998;2023-02-10T12:08:41;4.90;55.00
1351;DHT22;669;50.206;9.998;2023-02-10T12:11:19;5.10;54.50
1351;DHT22;669;50.206;9.998;2023-02-10T12:13:54;5.30;53.00
1351;DHT22;669;50.206;9.998;2023-02-10T12:16:36;5.40;53.80
1351;DHT22;669;50.206;9.998;2023-02-10T12:19:15;5.50;53.40
1351;DHT22;669;50.206;9.998;2023-02-10T12:22:00;5.30;53.40
1351;DHT22;669;50.206;9.998;2023-02-10T12:24:49;5.10;53.00
1351;DHT22;669;50.206;9.998;2023-02-10T12:27:29;4.90;52.80
1351;DHT22;669;50.206;9.998;2023-02-10T12:30:04;4.80;54.40
1351;DHT22;669;50.206;9.998;2023-02-10T12:32:41;5.00;54.00
1351;DHT22;669;50.206;9.998;2023-02-10T12:35:25;5.30;54.30
1351;DHT22;669;50.206;9.998;2023-02-10T12:38:10;5.70;52.40
1351;DHT22;669;50.206;9.998;2023-02-10T12:40:50;6.10;52.70
1351;DHT22;669;50.206;9.998;2023-02-10T12:43:33;6.40;52.10
1351;DHT22;669;50.206;9.998;2023-02-10T12:46:14;6.70;51.80
1351;DHT22;669;50.206;9.998;2023-02-10T12:49:04;6.60;50.10
1351;DHT22;669;50.206;9.998;2023-02-10T12:51:45;6.40;49.80
1351;DHT22;669;50.206;9.998;2023-02-10T12:54:18;6.20;51.20
1351;DHT22;669;50.206;9.998;2023-02-10T12:57:06;6.00;50.60
1351;DHT22;669;50.206;9.998;2023-02-10T12:59:41;5.70;51.80
1351;DHT22;669;50.206;9.998;2023-02-10T13:02:15;5.40;52.40
1351;DHT22;669;50.206;9.998;2023-02-10T13:04:46;5.10;53.00
1351;DHT22;669;50.206;9.998;2023-02-10T13:07:20;4.90;54.20
1351;DHT22;669;50.206;9.998;2023-02-10T13:09:57;4.70;55.30
1351;DHT22;669;50.206;9.998;2023-02-10T13:12:29;4.60;55.70
1351;DHT22;669;50.206;9.998;2023-02-10T13:15:02;4.50;56.80
1351;DHT22;669;50.206;9.998;2023-02-10T13:17:39;4.40;57.40
1351;DHT22;669;50.206;9.998;2023-02-10T13:23:16;4.10;57.80
1351;DHT22;669;50.206;9.998;2023-02-10T13:25:57;4.10;58.30
1351;DHT22;669;50.206;9.998;2023-02-10T13:28:34;4.00;58.60
1351;DHT22;669;50.206;9.998;2023-02-10T13:31:19;3.80;59.00
1351;DHT22;669;50.206;9.998;2023-02-10T13:33:59;3.80;59.70
1351;DHT22;669;50.206;9.998;2023-02-10T13:36:30;3.70;59.80
1351;DHT22;669;50.206;9.998;2023-02-10T13:39:02;3.60;60.10
1351;DHT22;669;50.206;9.998;2023-02-10T13:41:33;3.50;61.10
1351;DHT22;669;50.206;9.998;2023-02-10T13:44:33;3.40;61.20
1351;DHT22;669;50.206;9.998;2023-02-10T13:47:14;3.40;62.10
1351;DHT22;669;50.206;9.998;2023-02-10T13:49:53;3.30;62.60
1351;DHT22;669;50.206;9.998;2023-02-10T13:52:23;3.30;63.00
1351;DHT22;669;50.206;9.998;2023-02-10T13:54:57;3.30;64.10
1351;DHT22;669;50.206;9.998;2023-02-10T13:57:31;3.40;64.20
1351;DHT22;669;50.206;9.998;2023-02-10T14:00:16;3.40;64.20
1351;DHT22;669;50.206;9.998;2023-02-10T14:02:56;3.40;64.30
1351;DHT22;669;50.206;9.998;2023-02-10T14:05:28;3.40;64.70
1351;DHT22;669;50.206;9.998;2023-02-10T14:07:57;3.30;64.70
1351;DHT22;669;50.206;9.998;2023-02-10T14:10:31;3.30;64.40
1351;DHT22;669;50.206;9.998;2023-02-10T14:13:03;3.30;65.80
1351;DHT22;669;50.206;9.998;2023-02-10T14:15:33;3.30;65.20
1351;DHT22;669;50.206;9.998;2023-02-10T14:18:04;3.20;65.40
1351;DHT22;669;50.206;9.998;2023-02-10T14:20:36;3.20;65.90
1351;DHT22;669;50.206;9.998;2023-02-10T14:23:06;3.20;65.90
1351;DHT22;669;50.206;9.998;2023-02-10T14:25:38;3.20;66.20
1351;DHT22;669;50.206;9.998;2023-02-10T14:28:19;3.20;66.60
1351;DHT22;669;50.206;9.998;2023-02-10T14:30:52;3.20;66.60
1351;DHT22;669;50.206;9.998;2023-02-10T14:33:26;3.20;67.00
1351;DHT22;669;50.206;9.998;2023-02-10T14:35:57;3.30;66.30
1351;DHT22;669;50.206;9.998;2023-02-10T14:38:27;3.30;66.40
1351;DHT22;669;50.206;9.998;2023-02-10T14:40:57;3.30;66.40
1351;DHT22;669;50.206;9.998;2023-02-10T14:43:39;3.30;66.20
1351;DHT22;669;50.206;9.998;2023-02-10T14:46:16;3.30;66.30
1351;DHT22;669;50.206;9.998;2023-02-10T14:48:46;3.40;66.60
1351;DHT22;669;50.206;9.998;2023-02-10T14:51:21;3.40;66.60
1351;DHT22;669;50.206;9.998;2023-02-10T14:53:49;3.40;65.90
1351;DHT22;669;50.206;9.998;2023-02-10T14:56:20;3.40;65.80
1351;DHT22;669;50.206;9.998;2023-02-10T14:58:49;3.40;66.30
1351;DHT22;669;50.206;9.998;2023-02-10T15:01:23;3.40;66.40
1351;DHT22;669;50.206;9.998;2023-02-10T15:03:52;3.50;66.20
1351;DHT22;669;50.206;9.998;2023-02-10T15:06:23;3.40;65.20
1351;DHT22;669;50.206;9.998;2023-02-10T15:08:55;3.40;65.10
1351;DHT22;669;50.206;9.998;2023-02-10T15:11:25;3.40;65.20
1351;DHT22;669;50.206;9.998;2023-02-10T15:14:14;3.50;64.70
1351;DHT22;669;50.206;9.998;2023-02-10T15:16:44;3.50;64.40
1351;DHT22;669;50.206;9.998;2023-02-10T15:19:15;3.40;65.00
1351;DHT22;669;50.206;9.998;2023-02-10T15:21:45;3.40;64.70
1351;DHT22;669;50.206;9.998;2023-02-10T15:24:19;3.40;65.00
1351;DHT22;669;50.206;9.998;2023-02-10T15:26:47;3.30;65.20
1351;DHT22;669;50.206;9.998;2023-02-10T15:29:16;3.30;65.70
1351;DHT22;669;50.206;9.998;2023-02-10T15:31:53;3.30;66.10
1351;DHT22;669;50.206;9.998;2023-02-10T15:34:24;3.20;66.00
1351;DHT22;669;50.206;9.998;2023-02-10T15:36:58;3.20;66.30
1351;DHT22;669;50.206;9.998;2023-02-10T15:39:29;3.20;65.90
1351;DHT22;669;50.206;9.998;2023-02-10T15:42:01;3.20;66.20
1351;DHT22;669;50.206;9.998;2023-02-10T15:44:32;3.10;66.00
1351;DHT22;669;50.206;9.998;2023-02-10T15:47:23;3.10;66.20
1351;DHT22;669;50.206;9.998;2023-02-10T15:49:54;3.20;66.50
1351;DHT22;669;50.206;9.998;2023-02-10T15:52:27;3.10;66.80
1351;DHT22;669;50.206;9.998;2023-02-10T15:54:58;3.10;66.60
1351;DHT22;669;50.206;9.998;2023-02-10T15:57:26;3.00;67.10
1351;DHT22;669;50.206;9.998;2023-02-10T15:59:54;3.00;67.00
1351;DHT22;669;50.206;9.998;2023-02-10T16:02:22;3.00;67.60
1351;DHT22;669;50.206;9.998;2023-02-10T16:04:52;3.00;67.60
1351;DHT22;669;50.206;9.998;2023-02-10T16:07:22;2.90;67.60
1351;DHT22;669;50.206;9.998;2023-02-10T16:09:54;2.90;67.90
1351;DHT22;669;50.206;9.998;2023-02-10T16:12:22;2.80;68.20
1351;DHT22;669;50.206;9.998;2023-02-10T16:14:51;2.80;68.10
1351;DHT22;669;50.206;9.998;2023-02-10T16:17:22;2.70;68.40
1351;DHT22;669;50.206;9.998;2023-02-10T16:19:51;2.60;68.30
1351;DHT22;669;50.206;9.998;2023-02-10T16:22:20;2.60;68.70
1351;DHT22;669;50.206;9.998;2023-02-10T16:24:48;2.50;69.10
1351;DHT22;669;50.206;9.998;2023-02-10T16:27:18;2.50;69.30
1351;DHT22;669;50.206;9.998;2023-02-10T16:29:46;2.40;69.40
1351;DHT22;669;50.206;9.998;2023-02-10T16:32:14;2.30;69.50
1351;DHT22;669;50.206;9.998;2023-02-10T16:34:42;2.20;70.30
1351;DHT22;669;50.206;9.998;2023-02-10T16:37:17;2.20;70.50
1351;DHT22;669;50.206;9.998;2023-02-10T16:39:46;2.20;70.90
1351;DHT22;669;50.206;9.998;2023-02-10T16:42:14;2.10;71.50
1351;DHT22;669;50.206;9.998;2023-02-10T16:44:43;2.00;71.90
1351;DHT22;669;50.206;9.998;2023-02-10T16:47:16;1.90;71.90
1351;DHT22;669;50.206;9.998;2023-02-10T16:49:45;1.80;72.30
1351;DHT22;669;50.206;9.998;2023-02-10T16:52:12;1.80;72.90
1351;DHT22;669;50.206;9.998;2023-02-10T16:54:41;1.70;73.70
1351;DHT22;669;50.206;9.998;2023-02-10T16:57:10;1.70;73.80
1351;DHT22;669;50.206;9.998;2023-02-10T16:59:38;1.70;74.00